BDR002 HECA-LGSK
Flight info
| Callsign | BDR002 |
|---|---|
| Flight time | 2h 0m |
| Altitude | 34000 |
| Route | CVO DCT NOZ DCT ANTAR UN133 KPC UN137 RIPLI UL995 KEA UN132 ROPOX UM749 SIGFO |
| Aircraft | B38M/M-SDE1FGHILORVWXY/HB1 |
Departure
| Time | 2026-04-21 20:32 |
|---|---|
| Airport | Cairo International Airport (HECA) |
Arrival
| Time | 2026-04-21 22:32 |
|---|---|
| Airport | Skiathos Island National Airport (LGSK) |
| Time | Latitude | Longitude | Altitude | Speed | Heading |
|---|---|---|---|---|---|
| 2026-04-21 20:23 | 30.11020 | 31.40101 | 377 ft | 0 kts | 107° |
| 2026-04-21 20:24 | 30.11019 | 31.40104 | 377 ft | 1 kts | 107° |
| 2026-04-21 20:24 | 30.11015 | 31.40121 | 377 ft | 3 kts | 107° |
| 2026-04-21 20:24 | 30.11008 | 31.40146 | 377 ft | 4 kts | 107° |
| 2026-04-21 20:24 | 30.11000 | 31.40177 | 377 ft | 4 kts | 107° |
| 2026-04-21 20:25 | 30.10989 | 31.40219 | 377 ft | 6 kts | 108° |
| 2026-04-21 20:25 | 30.10973 | 31.40276 | 377 ft | 9 kts | 107° |
| 2026-04-21 20:25 | 30.10954 | 31.40349 | 377 ft | 10 kts | 107° |
| 2026-04-21 20:25 | 30.10928 | 31.40435 | 377 ft | 12 kts | 118° |
| 2026-04-21 20:26 | 30.10860 | 31.40453 | 377 ft | 12 kts | 220° |
| 2026-04-21 20:26 | 30.10800 | 31.40378 | 377 ft | 14 kts | 228° |
| 2026-04-21 20:26 | 30.10735 | 31.40291 | 377 ft | 15 kts | 230° |
| 2026-04-21 20:26 | 30.10662 | 31.40193 | 377 ft | 17 kts | 228° |
| 2026-04-21 20:27 | 30.10580 | 31.40087 | 377 ft | 18 kts | 229° |
| 2026-04-21 20:27 | 30.10493 | 31.39972 | 377 ft | 19 kts | 228° |
| 2026-04-21 20:27 | 30.10403 | 31.39852 | 377 ft | 21 kts | 229° |
| 2026-04-21 20:27 | 30.10308 | 31.39727 | 377 ft | 20 kts | 228° |
| 2026-04-21 20:28 | 30.10214 | 31.39605 | 377 ft | 19 kts | 228° |
| 2026-04-21 20:28 | 30.10129 | 31.39594 | 377 ft | 13 kts | 142° |
| 2026-04-21 20:28 | 30.10052 | 31.39668 | 377 ft | 15 kts | 140° |
| 2026-04-21 20:28 | 30.10030 | 31.39691 | 377 ft | 0 kts | 135° |
| 2026-04-21 20:29 | 30.10025 | 31.39699 | 377 ft | 2 kts | 128° |
| 2026-04-21 20:30 | 30.10012 | 31.39722 | 377 ft | 5 kts | 115° |
| 2026-04-21 20:30 | 30.10004 | 31.39773 | 376 ft | 8 kts | 96° |
| 2026-04-21 20:30 | 30.09988 | 31.39837 | 376 ft | 7 kts | 109° |
| 2026-04-21 20:30 | 30.10011 | 31.39883 | 374 ft | 5 kts | 49° |
| 2026-04-21 20:31 | 30.10014 | 31.39886 | 373 ft | 2 kts | 49° |
| 2026-04-21 20:31 | 30.10039 | 31.39920 | 372 ft | 15 kts | 49° |
| 2026-04-21 20:31 | 30.10264 | 31.40215 | 377 ft | 82 kts | 50° |
| 2026-04-21 20:31 | 30.10766 | 31.40885 | 374 ft | 137 kts | 49° |
| 2026-04-21 20:32 | 30.11467 | 31.41816 | 627 ft | 155 kts | 49° |
| 2026-04-21 20:32 | 30.12136 | 31.42748 | 1278 ft | 147 kts | 48° |
| 2026-04-21 20:32 | 30.12789 | 31.43723 | 1560 ft | 165 kts | 48° |
| 2026-04-21 20:32 | 30.13782 | 31.44230 | 2160 ft | 153 kts | 359° |
| 2026-04-21 20:33 | 30.14864 | 31.43895 | 2594 ft | 174 kts | 333° |
| 2026-04-21 20:33 | 30.15762 | 31.42830 | 2921 ft | 199 kts | 306° |
| 2026-04-21 20:33 | 30.16627 | 31.41504 | 3357 ft | 212 kts | 311° |
| 2026-04-21 20:33 | 30.17605 | 31.40134 | 3714 ft | 231 kts | 311° |
| 2026-04-21 20:34 | 30.18676 | 31.38646 | 4151 ft | 244 kts | 311° |
| 2026-04-21 20:34 | 30.19743 | 31.37157 | 5101 ft | 244 kts | 309° |
| 2026-04-21 20:34 | 30.20868 | 31.35589 | 5540 ft | 263 kts | 310° |
| 2026-04-21 20:34 | 30.22051 | 31.33944 | 6279 ft | 266 kts | 310° |
| 2026-04-21 20:35 | 30.23235 | 31.32280 | 7049 ft | 270 kts | 310° |
| 2026-04-21 20:35 | 30.24433 | 31.30594 | 7805 ft | 272 kts | 310° |
| 2026-04-21 20:35 | 30.25640 | 31.28891 | 8565 ft | 276 kts | 310° |
| 2026-04-21 20:35 | 30.26862 | 31.27166 | 9335 ft | 279 kts | 309° |
| 2026-04-21 20:36 | 30.27679 | 31.26012 | 9834 ft | 281 kts | 309° |
| 2026-04-21 20:36 | 30.28929 | 31.24248 | 10441 ft | 290 kts | 309° |
| 2026-04-21 20:36 | 30.30257 | 31.22393 | 10735 ft | 309 kts | 309° |
| 2026-04-21 20:36 | 30.31662 | 31.20435 | 11135 ft | 323 kts | 309° |
| 2026-04-21 20:37 | 30.33104 | 31.18417 | 11819 ft | 326 kts | 309° |
| 2026-04-21 20:37 | 30.34545 | 31.16383 | 12561 ft | 329 kts | 309° |
| 2026-04-21 20:37 | 30.36001 | 31.14321 | 13321 ft | 332 kts | 308° |
| 2026-04-21 20:37 | 30.37468 | 31.12241 | 14071 ft | 335 kts | 308° |
| 2026-04-21 20:38 | 30.38950 | 31.10137 | 14774 ft | 338 kts | 308° |
| 2026-04-21 20:38 | 30.40442 | 31.08018 | 15490 ft | 341 kts | 308° |
| 2026-04-21 20:38 | 30.41950 | 31.05876 | 16187 ft | 344 kts | 308° |
| 2026-04-21 20:38 | 30.43469 | 31.03717 | 16872 ft | 348 kts | 308° |
| 2026-04-21 20:39 | 30.45004 | 31.01533 | 17547 ft | 351 kts | 307° |
| 2026-04-21 20:39 | 30.45043 | 31.01477 | 17564 ft | 351 kts | 307° |
| 2026-04-21 20:39 | 30.45845 | 31.00336 | 17905 ft | 353 kts | 307° |
| 2026-04-21 20:39 | 30.47403 | 30.98117 | 18534 ft | 356 kts | 307° |
| 2026-04-21 20:40 | 30.48952 | 30.95911 | 19102 ft | 359 kts | 307° |
| 2026-04-21 20:40 | 30.50556 | 30.93623 | 19666 ft | 362 kts | 307° |
| 2026-04-21 20:40 | 30.52130 | 30.91379 | 20214 ft | 365 kts | 307° |
| 2026-04-21 20:40 | 30.53739 | 30.89082 | 20752 ft | 368 kts | 307° |
| 2026-04-21 20:41 | 30.55360 | 30.86767 | 21283 ft | 372 kts | 307° |
| 2026-04-21 20:41 | 30.56996 | 30.84428 | 21810 ft | 375 kts | 307° |
| 2026-04-21 20:41 | 30.58643 | 30.82072 | 22335 ft | 378 kts | 307° |
| 2026-04-21 20:41 | 30.60305 | 30.79694 | 22855 ft | 381 kts | 307° |
| 2026-04-21 20:42 | 30.61981 | 30.77294 | 23368 ft | 384 kts | 307° |
| 2026-04-21 20:42 | 30.63670 | 30.74874 | 23826 ft | 387 kts | 307° |
| 2026-04-21 20:42 | 30.65370 | 30.72438 | 24262 ft | 389 kts | 307° |
| 2026-04-21 20:42 | 30.67077 | 30.69988 | 24706 ft | 391 kts | 307° |
| 2026-04-21 20:43 | 30.68791 | 30.67527 | 25133 ft | 393 kts | 307° |
| 2026-04-21 20:43 | 30.70513 | 30.65053 | 25573 ft | 394 kts | 307° |
| 2026-04-21 20:43 | 30.72239 | 30.62571 | 25992 ft | 396 kts | 307° |
| 2026-04-21 20:43 | 30.73975 | 30.60074 | 26408 ft | 398 kts | 306° |
| 2026-04-21 20:44 | 30.75721 | 30.57561 | 26815 ft | 400 kts | 306° |
| 2026-04-21 20:44 | 30.77472 | 30.55038 | 27204 ft | 402 kts | 306° |
| 2026-04-21 20:44 | 30.79231 | 30.52503 | 27606 ft | 404 kts | 306° |
| 2026-04-21 20:44 | 30.80998 | 30.49954 | 27998 ft | 406 kts | 306° |
| 2026-04-21 20:45 | 30.82772 | 30.47394 | 28385 ft | 407 kts | 306° |
| 2026-04-21 20:45 | 30.84556 | 30.44817 | 28758 ft | 409 kts | 306° |
| 2026-04-21 20:45 | 30.86345 | 30.42231 | 29127 ft | 411 kts | 306° |
| 2026-04-21 20:45 | 30.88144 | 30.39628 | 29506 ft | 413 kts | 306° |
| 2026-04-21 20:46 | 30.89947 | 30.37021 | 29917 ft | 414 kts | 306° |
| 2026-04-21 20:46 | 30.91752 | 30.34405 | 30260 ft | 415 kts | 305° |
| 2026-04-21 20:46 | 30.93566 | 30.31777 | 30541 ft | 417 kts | 305° |
| 2026-04-21 20:46 | 30.95383 | 30.29141 | 30845 ft | 419 kts | 305° |
| 2026-04-21 20:47 | 30.97211 | 30.26488 | 31133 ft | 420 kts | 305° |
| 2026-04-21 20:47 | 30.99043 | 30.23826 | 31433 ft | 421 kts | 305° |
| 2026-04-21 20:47 | 31.00873 | 30.21166 | 31821 ft | 420 kts | 305° |
| 2026-04-21 20:47 | 31.02699 | 30.18508 | 32228 ft | 419 kts | 305° |
| 2026-04-21 20:48 | 31.04514 | 30.15865 | 32632 ft | 417 kts | 305° |
| 2026-04-21 20:48 | 31.06285 | 30.13284 | 33328 ft | 407 kts | 304° |
| 2026-04-21 20:48 | 31.08043 | 30.10719 | 34014 ft | 388 kts | 304° |
| 2026-04-21 20:48 | 31.09689 | 30.08317 | 34094 ft | 372 kts | 304° |
| 2026-04-21 20:49 | 31.11249 | 30.06040 | 34092 ft | 357 kts | 304° |
| 2026-04-21 20:49 | 31.12770 | 30.03819 | 34098 ft | 346 kts | 304° |
| 2026-04-21 20:49 | 31.15762 | 29.99450 | 34063 ft | 344 kts | 304° |
| 2026-04-21 20:50 | 31.18911 | 29.95240 | 34054 ft | 350 kts | 319° |
| 2026-04-21 20:50 | 31.23203 | 29.92393 | 34052 ft | 358 kts | 324° |
| 2026-04-21 20:51 | 31.27569 | 29.89596 | 34079 ft | 358 kts | 325° |
| 2026-04-21 20:51 | 31.31961 | 29.86832 | 34076 ft | 358 kts | 325° |
| 2026-04-21 20:52 | 31.36358 | 29.84077 | 34071 ft | 359 kts | 325° |
| 2026-04-21 20:52 | 31.40753 | 29.81322 | 34073 ft | 359 kts | 326° |
| 2026-04-21 20:53 | 31.45153 | 29.78561 | 34069 ft | 358 kts | 326° |
| 2026-04-21 20:53 | 31.49546 | 29.75801 | 34066 ft | 359 kts | 326° |
| 2026-04-21 20:54 | 31.53946 | 29.73035 | 34083 ft | 359 kts | 326° |
| 2026-04-21 20:54 | 31.58345 | 29.70266 | 34070 ft | 358 kts | 326° |
| 2026-04-21 20:55 | 31.62737 | 29.67498 | 34072 ft | 359 kts | 326° |
| 2026-04-21 20:55 | 31.67137 | 29.64722 | 34067 ft | 359 kts | 326° |
| 2026-04-21 20:56 | 31.71539 | 29.61942 | 34067 ft | 359 kts | 326° |
| 2026-04-21 20:56 | 31.75940 | 29.59159 | 34070 ft | 359 kts | 326° |
| 2026-04-21 20:57 | 31.80343 | 29.56373 | 34067 ft | 359 kts | 326° |
| 2026-04-21 20:57 | 31.84746 | 29.53583 | 34077 ft | 359 kts | 326° |
| 2026-04-21 20:58 | 31.89142 | 29.50795 | 34072 ft | 359 kts | 326° |
| 2026-04-21 20:58 | 31.93504 | 29.48025 | 34067 ft | 359 kts | 326° |
| 2026-04-21 20:59 | 31.97895 | 29.45234 | 34067 ft | 359 kts | 326° |
| 2026-04-21 20:59 | 32.02291 | 29.42437 | 34072 ft | 359 kts | 326° |
| 2026-04-21 21:00 | 32.06689 | 29.39635 | 34074 ft | 359 kts | 326° |
| 2026-04-21 21:00 | 32.11086 | 29.36830 | 34092 ft | 359 kts | 326° |
| 2026-04-21 21:01 | 32.15465 | 29.34035 | 34067 ft | 358 kts | 326° |
| 2026-04-21 21:01 | 32.19851 | 29.31231 | 34071 ft | 359 kts | 326° |
| 2026-04-21 21:02 | 32.24231 | 29.28428 | 34072 ft | 359 kts | 326° |
| 2026-04-21 21:02 | 32.28621 | 29.25616 | 34063 ft | 359 kts | 326° |
| 2026-04-21 21:03 | 32.33005 | 29.22805 | 34067 ft | 358 kts | 326° |
| 2026-04-21 21:03 | 32.37383 | 29.19994 | 34074 ft | 358 kts | 326° |
| 2026-04-21 21:04 | 32.41764 | 29.17178 | 34073 ft | 358 kts | 326° |
| 2026-04-21 21:04 | 32.46118 | 29.14377 | 34066 ft | 359 kts | 326° |
| 2026-04-21 21:05 | 32.50504 | 29.11551 | 34064 ft | 359 kts | 326° |
| 2026-04-21 21:05 | 32.54890 | 29.08722 | 34063 ft | 359 kts | 326° |
| 2026-04-21 21:06 | 32.59281 | 29.05888 | 34062 ft | 359 kts | 326° |
| 2026-04-21 21:06 | 32.63670 | 29.03051 | 34065 ft | 359 kts | 326° |
| 2026-04-21 21:07 | 32.68063 | 29.00209 | 34085 ft | 360 kts | 326° |
| 2026-04-21 21:07 | 32.72448 | 28.97368 | 34067 ft | 358 kts | 326° |
| 2026-04-21 21:08 | 32.76829 | 28.94527 | 34070 ft | 359 kts | 326° |
| 2026-04-21 21:08 | 32.81181 | 28.91701 | 34064 ft | 359 kts | 326° |
| 2026-04-21 21:09 | 32.85590 | 28.88835 | 34062 ft | 359 kts | 326° |
| 2026-04-21 21:09 | 32.89950 | 28.85998 | 34062 ft | 359 kts | 326° |
| 2026-04-21 21:10 | 32.94337 | 28.83140 | 34062 ft | 360 kts | 326° |
| 2026-04-21 21:10 | 32.98727 | 28.80277 | 34067 ft | 360 kts | 326° |
| 2026-04-21 21:11 | 33.03115 | 28.77412 | 34065 ft | 360 kts | 326° |
| 2026-04-21 21:11 | 33.07507 | 28.74541 | 34061 ft | 360 kts | 326° |
| 2026-04-21 21:12 | 33.11898 | 28.71667 | 34059 ft | 360 kts | 326° |
| 2026-04-21 21:12 | 33.16292 | 28.68788 | 34057 ft | 360 kts | 326° |
| 2026-04-21 21:13 | 33.20691 | 28.65902 | 34065 ft | 361 kts | 326° |
| 2026-04-21 21:13 | 33.25089 | 28.63014 | 34069 ft | 360 kts | 326° |
| 2026-04-21 21:14 | 33.29477 | 28.60129 | 34056 ft | 360 kts | 326° |
| 2026-04-21 21:14 | 33.33870 | 28.57237 | 34057 ft | 361 kts | 326° |
| 2026-04-21 21:15 | 33.38262 | 28.54343 | 34054 ft | 360 kts | 326° |
| 2026-04-21 21:15 | 33.42658 | 28.51442 | 34054 ft | 361 kts | 326° |
| 2026-04-21 21:16 | 33.47022 | 28.48559 | 34055 ft | 361 kts | 326° |
| 2026-04-21 21:16 | 33.51418 | 28.45652 | 34053 ft | 361 kts | 326° |
| 2026-04-21 21:17 | 33.55818 | 28.42740 | 34055 ft | 361 kts | 326° |
| 2026-04-21 21:17 | 33.60211 | 28.39828 | 34051 ft | 361 kts | 326° |
| 2026-04-21 21:18 | 33.64607 | 28.36912 | 34055 ft | 361 kts | 326° |
| 2026-04-21 21:18 | 33.69006 | 28.33990 | 34049 ft | 361 kts | 326° |
| 2026-04-21 21:19 | 33.73404 | 28.31065 | 34049 ft | 362 kts | 326° |
| 2026-04-21 21:19 | 33.77811 | 28.28131 | 34048 ft | 362 kts | 326° |
| 2026-04-21 21:20 | 33.82206 | 28.25176 | 34058 ft | 362 kts | 326° |
| 2026-04-21 21:20 | 33.86594 | 28.22214 | 34049 ft | 362 kts | 326° |
| 2026-04-21 21:21 | 33.90985 | 28.19249 | 34051 ft | 362 kts | 326° |
| 2026-04-21 21:21 | 33.95386 | 28.16274 | 34047 ft | 363 kts | 326° |
| 2026-04-21 21:22 | 33.99782 | 28.13298 | 34047 ft | 363 kts | 326° |
| 2026-04-21 21:22 | 34.04183 | 28.10316 | 34045 ft | 363 kts | 326° |
| 2026-04-21 21:23 | 34.08588 | 28.07328 | 34065 ft | 363 kts | 326° |
| 2026-04-21 21:23 | 34.12995 | 28.04334 | 34047 ft | 363 kts | 326° |
| 2026-04-21 21:24 | 34.16659 | 28.01842 | 34043 ft | 364 kts | 326° |
| 2026-04-21 21:24 | 34.21070 | 27.98840 | 34043 ft | 364 kts | 326° |
| 2026-04-21 21:25 | 34.25485 | 27.95830 | 34042 ft | 364 kts | 326° |
| 2026-04-21 21:25 | 34.29900 | 27.92817 | 34040 ft | 365 kts | 326° |
| 2026-04-21 21:26 | 34.34319 | 27.89798 | 34040 ft | 365 kts | 326° |
| 2026-04-21 21:26 | 34.38748 | 27.86768 | 34043 ft | 366 kts | 326° |
| 2026-04-21 21:27 | 34.43177 | 27.83734 | 34042 ft | 366 kts | 326° |
| 2026-04-21 21:27 | 34.47609 | 27.80696 | 34038 ft | 366 kts | 326° |
| 2026-04-21 21:28 | 34.52046 | 27.77650 | 34038 ft | 367 kts | 326° |
| 2026-04-21 21:29 | 34.58699 | 27.73057 | 34034 ft | 367 kts | 326° |
| 2026-04-21 21:29 | 34.63137 | 27.69989 | 34052 ft | 367 kts | 326° |
| 2026-04-21 21:30 | 34.67585 | 27.66910 | 34023 ft | 368 kts | 326° |
| 2026-04-21 21:30 | 34.72035 | 27.63826 | 34040 ft | 368 kts | 326° |
| 2026-04-21 21:31 | 34.76490 | 27.60735 | 34041 ft | 369 kts | 326° |
| 2026-04-21 21:31 | 34.80944 | 27.57640 | 34030 ft | 369 kts | 326° |
| 2026-04-21 21:32 | 34.85377 | 27.54556 | 34030 ft | 369 kts | 326° |
| 2026-04-21 21:32 | 34.89870 | 27.51426 | 34038 ft | 370 kts | 326° |
| 2026-04-21 21:33 | 34.94308 | 27.48331 | 34025 ft | 371 kts | 326° |
| 2026-04-21 21:33 | 34.98790 | 27.45201 | 34036 ft | 371 kts | 325° |
| 2026-04-21 21:34 | 35.03275 | 27.42066 | 34021 ft | 372 kts | 325° |
| 2026-04-21 21:34 | 35.07763 | 27.38923 | 34024 ft | 372 kts | 325° |
| 2026-04-21 21:35 | 35.12256 | 27.35774 | 34028 ft | 372 kts | 325° |
| 2026-04-21 21:35 | 35.16750 | 27.32619 | 34025 ft | 373 kts | 325° |
| 2026-04-21 21:36 | 35.21243 | 27.29461 | 34021 ft | 373 kts | 325° |
| 2026-04-21 21:36 | 35.25744 | 27.26294 | 34015 ft | 373 kts | 325° |
| 2026-04-21 21:37 | 35.30248 | 27.23121 | 34022 ft | 374 kts | 325° |
| 2026-04-21 21:37 | 35.34753 | 27.19942 | 34020 ft | 374 kts | 325° |
| 2026-04-21 21:38 | 35.39258 | 27.16760 | 34031 ft | 374 kts | 325° |
| 2026-04-21 21:38 | 35.43695 | 27.13450 | 34028 ft | 373 kts | 322° |
| 2026-04-21 21:39 | 35.48069 | 27.10004 | 34023 ft | 374 kts | 323° |
| 2026-04-21 21:39 | 35.52451 | 27.06566 | 34021 ft | 374 kts | 323° |
| 2026-04-21 21:40 | 35.56847 | 27.03117 | 34021 ft | 375 kts | 323° |
| 2026-04-21 21:40 | 35.61286 | 26.99629 | 34018 ft | 382 kts | 323° |
| 2026-04-21 21:41 | 35.65757 | 26.96110 | 34020 ft | 384 kts | 323° |
| 2026-04-21 21:41 | 35.70167 | 26.92636 | 34019 ft | 376 kts | 323° |
| 2026-04-21 21:42 | 35.74570 | 26.89162 | 34030 ft | 376 kts | 323° |
| 2026-04-21 21:42 | 35.78988 | 26.85672 | 34020 ft | 378 kts | 322° |
| 2026-04-21 21:43 | 35.83412 | 26.82172 | 34020 ft | 378 kts | 322° |
| 2026-04-21 21:43 | 35.87838 | 26.78667 | 34015 ft | 378 kts | 322° |
| 2026-04-21 21:44 | 35.92263 | 26.75144 | 34013 ft | 379 kts | 322° |
| 2026-04-21 21:44 | 35.96687 | 26.71606 | 34013 ft | 379 kts | 322° |
| 2026-04-21 21:45 | 36.01118 | 26.68057 | 34036 ft | 380 kts | 322° |
| 2026-04-21 21:45 | 36.05549 | 26.64505 | 34017 ft | 380 kts | 322° |
| 2026-04-21 21:46 | 36.09982 | 26.60945 | 34008 ft | 380 kts | 322° |
| 2026-04-21 21:46 | 36.14422 | 26.57376 | 34008 ft | 381 kts | 322° |
| 2026-04-21 21:47 | 36.18869 | 26.53796 | 34005 ft | 382 kts | 322° |
| 2026-04-21 21:47 | 36.23327 | 26.50201 | 34001 ft | 383 kts | 322° |
| 2026-04-21 21:48 | 36.27790 | 26.46599 | 34003 ft | 383 kts | 322° |
| 2026-04-21 21:48 | 36.32254 | 26.42990 | 34008 ft | 383 kts | 322° |
| 2026-04-21 21:49 | 36.36723 | 26.39371 | 34007 ft | 384 kts | 322° |
| 2026-04-21 21:49 | 36.41193 | 26.35748 | 34003 ft | 384 kts | 322° |
| 2026-04-21 21:50 | 36.45668 | 26.32115 | 34001 ft | 385 kts | 322° |
| 2026-04-21 21:50 | 36.50149 | 26.28472 | 33999 ft | 385 kts | 322° |
| 2026-04-21 21:51 | 36.54633 | 26.24824 | 34008 ft | 385 kts | 322° |
| 2026-04-21 21:51 | 36.58699 | 26.20629 | 34004 ft | 378 kts | 312° |
| 2026-04-21 21:52 | 36.62493 | 26.16064 | 33994 ft | 380 kts | 312° |
| 2026-04-21 21:52 | 36.66293 | 26.11467 | 33991 ft | 381 kts | 312° |
| 2026-04-21 21:53 | 36.70069 | 26.06890 | 33991 ft | 381 kts | 312° |
| 2026-04-21 21:53 | 36.73868 | 26.02277 | 33993 ft | 382 kts | 312° |
| 2026-04-21 21:54 | 36.77679 | 25.97643 | 33986 ft | 383 kts | 312° |
| 2026-04-21 21:54 | 36.81490 | 25.93002 | 33983 ft | 384 kts | 312° |
| 2026-04-21 21:55 | 36.85313 | 25.88339 | 33986 ft | 385 kts | 312° |
| 2026-04-21 21:55 | 36.89146 | 25.83658 | 33979 ft | 386 kts | 312° |
| 2026-04-21 21:56 | 36.92983 | 25.78964 | 33977 ft | 386 kts | 312° |
| 2026-04-21 21:56 | 36.96823 | 25.74260 | 33972 ft | 387 kts | 312° |
| 2026-04-21 21:57 | 37.00669 | 25.69541 | 33972 ft | 387 kts | 312° |
| 2026-04-21 21:57 | 37.04519 | 25.64810 | 33974 ft | 388 kts | 312° |
| 2026-04-21 21:58 | 37.08365 | 25.60078 | 33970 ft | 389 kts | 312° |
| 2026-04-21 21:58 | 37.12237 | 25.55306 | 33971 ft | 390 kts | 312° |
| 2026-04-21 21:59 | 37.16109 | 25.50528 | 33986 ft | 391 kts | 312° |
| 2026-04-21 21:59 | 37.19980 | 25.45743 | 33959 ft | 390 kts | 312° |
| 2026-04-21 22:00 | 37.23825 | 25.40960 | 33968 ft | 393 kts | 312° |
| 2026-04-21 22:00 | 37.27402 | 25.35844 | 33940 ft | 385 kts | 295° |
| 2026-04-21 22:01 | 37.29310 | 25.29568 | 33942 ft | 387 kts | 289° |
| 2026-04-21 22:01 | 37.31087 | 25.23194 | 33965 ft | 388 kts | 289° |
| 2026-04-21 22:02 | 37.32820 | 25.16780 | 33965 ft | 388 kts | 288° |
| 2026-04-21 22:02 | 37.34544 | 25.10334 | 33966 ft | 389 kts | 288° |
| 2026-04-21 22:03 | 37.36267 | 25.03877 | 33968 ft | 391 kts | 288° |
| 2026-04-21 22:03 | 37.38008 | 24.97336 | 33971 ft | 395 kts | 288° |
| 2026-04-21 22:04 | 37.39744 | 24.90800 | 33965 ft | 395 kts | 288° |
| 2026-04-21 22:04 | 37.41483 | 24.84237 | 33967 ft | 396 kts | 288° |
| 2026-04-21 22:05 | 37.43213 | 24.77690 | 33963 ft | 397 kts | 288° |
| 2026-04-21 22:05 | 37.44964 | 24.71048 | 33962 ft | 398 kts | 288° |
| 2026-04-21 22:06 | 37.46707 | 24.64419 | 33964 ft | 399 kts | 288° |
| 2026-04-21 22:06 | 37.48450 | 24.57770 | 33957 ft | 401 kts | 288° |
| 2026-04-21 22:07 | 37.50196 | 24.51095 | 33951 ft | 402 kts | 288° |
| 2026-04-21 22:07 | 37.51943 | 24.44398 | 33951 ft | 403 kts | 288° |
| 2026-04-21 22:08 | 37.53681 | 24.37718 | 33953 ft | 404 kts | 288° |
| 2026-04-21 22:08 | 37.55761 | 24.31164 | 33928 ft | 404 kts | 303° |
| 2026-04-21 22:08 | 37.57671 | 24.28559 | 33961 ft | 409 kts | 318° |
| 2026-04-21 22:09 | 37.59965 | 24.26394 | 33940 ft | 414 kts | 320° |
| 2026-04-21 22:09 | 37.64660 | 24.22175 | 33954 ft | 415 kts | 321° |
| 2026-04-21 22:10 | 37.69419 | 24.18012 | 33968 ft | 416 kts | 321° |
| 2026-04-21 22:10 | 37.74214 | 24.13842 | 31944 ft | 436 kts | 322° |
| 2026-04-21 22:10 | 37.76746 | 24.11642 | 30985 ft | 440 kts | 322° |
| 2026-04-21 22:11 | 37.79249 | 24.09465 | 30409 ft | 434 kts | 322° |
| 2026-04-21 22:11 | 37.81725 | 24.07307 | 29636 ft | 432 kts | 322° |
| 2026-04-21 22:11 | 37.84207 | 24.05144 | 28703 ft | 432 kts | 322° |
| 2026-04-21 22:11 | 37.86681 | 24.02986 | 27718 ft | 434 kts | 322° |
| 2026-04-21 22:12 | 37.89174 | 24.00809 | 26700 ft | 437 kts | 323° |
| 2026-04-21 22:12 | 37.91686 | 23.98614 | 25664 ft | 440 kts | 323° |
| 2026-04-21 22:12 | 37.94215 | 23.96402 | 24738 ft | 442 kts | 323° |
| 2026-04-21 22:12 | 37.96699 | 23.94227 | 24055 ft | 438 kts | 323° |
| 2026-04-21 22:13 | 37.98384 | 23.92752 | 23573 ft | 436 kts | 323° |
| 2026-04-21 22:13 | 38.01672 | 23.89869 | 22525 ft | 431 kts | 323° |
| 2026-04-21 22:13 | 38.04127 | 23.87715 | 21817 ft | 426 kts | 323° |
| 2026-04-21 22:13 | 38.06546 | 23.85590 | 21160 ft | 421 kts | 323° |
| 2026-04-21 22:14 | 38.08945 | 23.83482 | 20490 ft | 417 kts | 323° |
| 2026-04-21 22:14 | 38.11317 | 23.81396 | 19858 ft | 413 kts | 323° |
| 2026-04-21 22:14 | 38.12909 | 23.79995 | 19420 ft | 410 kts | 323° |
| 2026-04-21 22:14 | 38.15257 | 23.77963 | 18793 ft | 407 kts | 327° |
| 2026-04-21 22:15 | 38.17877 | 23.76591 | 18185 ft | 410 kts | 343° |
| 2026-04-21 22:15 | 38.20695 | 23.75992 | 17449 ft | 410 kts | 348° |
| 2026-04-21 22:15 | 38.23515 | 23.75515 | 16799 ft | 407 kts | 349° |
| 2026-04-21 22:15 | 38.26278 | 23.75077 | 16151 ft | 405 kts | 349° |
| 2026-04-21 22:16 | 38.29066 | 23.74655 | 15527 ft | 402 kts | 349° |
| 2026-04-21 22:16 | 38.31839 | 23.74247 | 14873 ft | 401 kts | 349° |
| 2026-04-21 22:16 | 38.34608 | 23.73843 | 14286 ft | 399 kts | 349° |
| 2026-04-21 22:16 | 38.37358 | 23.73443 | 13686 ft | 397 kts | 350° |
| 2026-04-21 22:17 | 38.40094 | 23.73046 | 13076 ft | 394 kts | 350° |
| 2026-04-21 22:17 | 38.42801 | 23.72653 | 12516 ft | 391 kts | 350° |
| 2026-04-21 22:17 | 38.45489 | 23.72262 | 11992 ft | 386 kts | 350° |
| 2026-04-21 22:17 | 38.48140 | 23.71876 | 11527 ft | 381 kts | 350° |
| 2026-04-21 22:18 | 38.50749 | 23.71497 | 11165 ft | 373 kts | 350° |
| 2026-04-21 22:18 | 38.53291 | 23.71125 | 10897 ft | 363 kts | 350° |
| 2026-04-21 22:18 | 38.55714 | 23.70772 | 10670 ft | 354 kts | 350° |
| 2026-04-21 22:18 | 38.58127 | 23.70420 | 10460 ft | 344 kts | 350° |
| 2026-04-21 22:19 | 38.60472 | 23.70078 | 10273 ft | 334 kts | 350° |
| 2026-04-21 22:19 | 38.62754 | 23.69744 | 10116 ft | 325 kts | 350° |
| 2026-04-21 22:19 | 38.64965 | 23.69421 | 9965 ft | 315 kts | 350° |
| 2026-04-21 22:19 | 38.67101 | 23.69109 | 9835 ft | 305 kts | 350° |
| 2026-04-21 22:20 | 38.69180 | 23.68804 | 9686 ft | 296 kts | 350° |
| 2026-04-21 22:20 | 38.71194 | 23.68510 | 9559 ft | 286 kts | 350° |
| 2026-04-21 22:20 | 38.73137 | 23.68224 | 9483 ft | 276 kts | 350° |
| 2026-04-21 22:20 | 38.75015 | 23.67950 | 9316 ft | 269 kts | 349° |
| 2026-04-21 22:21 | 38.76873 | 23.67677 | 8962 ft | 269 kts | 350° |
| 2026-04-21 22:21 | 38.78729 | 23.67404 | 8630 ft | 268 kts | 350° |
| 2026-04-21 22:21 | 38.80584 | 23.67132 | 8311 ft | 267 kts | 350° |
| 2026-04-21 22:21 | 38.82405 | 23.66864 | 7980 ft | 267 kts | 350° |
| 2026-04-21 22:22 | 38.84273 | 23.66590 | 7666 ft | 266 kts | 351° |
| 2026-04-21 22:22 | 38.86085 | 23.66323 | 7356 ft | 266 kts | 351° |
| 2026-04-21 22:22 | 38.87916 | 23.66053 | 7053 ft | 265 kts | 350° |
| 2026-04-21 22:22 | 38.89748 | 23.65784 | 6740 ft | 265 kts | 351° |
| 2026-04-21 22:23 | 38.91573 | 23.65515 | 6436 ft | 264 kts | 351° |
| 2026-04-21 22:23 | 38.93396 | 23.65246 | 6115 ft | 264 kts | 351° |
| 2026-04-21 22:23 | 38.95213 | 23.64978 | 5806 ft | 263 kts | 351° |
| 2026-04-21 22:23 | 38.97027 | 23.64710 | 5499 ft | 262 kts | 351° |
| 2026-04-21 22:24 | 38.98833 | 23.64443 | 5199 ft | 261 kts | 351° |
| 2026-04-21 22:24 | 39.00633 | 23.64177 | 4909 ft | 260 kts | 351° |
| 2026-04-21 22:24 | 39.02428 | 23.63912 | 4598 ft | 259 kts | 352° |
| 2026-04-21 22:24 | 39.04215 | 23.63647 | 4296 ft | 258 kts | 352° |
| 2026-04-21 22:25 | 39.05994 | 23.63384 | 4025 ft | 256 kts | 352° |
| 2026-04-21 22:25 | 39.07759 | 23.63122 | 3938 ft | 256 kts | 352° |
| 2026-04-21 22:25 | 39.09511 | 23.62750 | 3940 ft | 255 kts | 338° |
| 2026-04-21 22:25 | 39.10999 | 23.61589 | 3986 ft | 250 kts | 314° |
| 2026-04-21 22:26 | 39.11952 | 23.59758 | 3985 ft | 247 kts | 287° |
| 2026-04-21 22:26 | 39.12095 | 23.57591 | 3994 ft | 245 kts | 259° |
| 2026-04-21 22:26 | 39.11400 | 23.55609 | 3995 ft | 243 kts | 231° |
| 2026-04-21 22:26 | 39.10115 | 23.54315 | 3994 ft | 231 kts | 204° |
| 2026-04-21 22:27 | 39.08594 | 23.53918 | 4024 ft | 218 kts | 180° |
| 2026-04-21 22:27 | 39.07138 | 23.54013 | 4011 ft | 202 kts | 191° |
| 2026-04-21 22:27 | 39.05879 | 23.53436 | 3997 ft | 187 kts | 207° |
| 2026-04-21 22:27 | 39.04694 | 23.52728 | 4064 ft | 188 kts | 207° |
| 2026-04-21 22:28 | 39.03525 | 23.52010 | 3962 ft | 184 kts | 208° |
| 2026-04-21 22:28 | 39.02564 | 23.51010 | 3761 ft | 176 kts | 238° |
| 2026-04-21 22:28 | 39.02228 | 23.49536 | 3498 ft | 173 kts | 271° |
| 2026-04-21 22:28 | 39.02594 | 23.48077 | 3157 ft | 175 kts | 304° |
| 2026-04-21 22:29 | 39.03495 | 23.47094 | 2831 ft | 169 kts | 334° |
| 2026-04-21 22:29 | 39.04633 | 23.46813 | 2556 ft | 168 kts | 2° |
| 2026-04-21 22:29 | 39.05791 | 23.47022 | 2380 ft | 168 kts | 9° |
| 2026-04-21 22:29 | 39.06915 | 23.47233 | 2245 ft | 160 kts | 8° |
| 2026-04-21 22:30 | 39.07984 | 23.47488 | 2089 ft | 154 kts | 11° |
| 2026-04-21 22:30 | 39.09016 | 23.47790 | 1795 ft | 150 kts | 12° |
| 2026-04-21 22:30 | 39.10032 | 23.48013 | 1467 ft | 147 kts | 4° |
| 2026-04-21 22:30 | 39.11035 | 23.48101 | 1180 ft | 141 kts | 0° |
| 2026-04-21 22:31 | 39.12009 | 23.48103 | 952 ft | 143 kts | 4° |
| 2026-04-21 22:31 | 39.12987 | 23.48298 | 728 ft | 141 kts | 14° |
| 2026-04-21 22:31 | 39.13931 | 23.48642 | 586 ft | 139 kts | 16° |
| 2026-04-21 22:31 | 39.14853 | 23.49058 | 381 ft | 142 kts | 21° |
| 2026-04-21 22:32 | 39.15748 | 23.49477 | 226 ft | 136 kts | 17° |
| 2026-04-21 22:32 | 39.16639 | 23.49883 | 97 ft | 136 kts | 17° |
| 2026-04-21 22:32 | 39.17511 | 23.50269 | 37 ft | 115 kts | 19° |
| 2026-04-21 22:32 | 39.18031 | 23.50500 | 48 ft | 47 kts | 19° |
| 2026-04-21 22:33 | 39.18198 | 23.50577 | 55 ft | 14 kts | 26° |
| 2026-04-21 22:33 | 39.18237 | 23.50601 | 56 ft | 0 kts | 323° |
| 2026-04-21 22:33 | 39.18235 | 23.50593 | 55 ft | 2 kts | 237° |
| 2026-04-21 22:33 | 39.18181 | 23.50566 | 54 ft | 15 kts | 199° |
| 2026-04-21 22:34 | 39.18053 | 23.50510 | 48 ft | 21 kts | 199° |
| 2026-04-21 22:34 | 39.17958 | 23.50460 | 41 ft | 11 kts | 225° |
| 2026-04-21 22:34 | 39.17931 | 23.50398 | 45 ft | 7 kts | 243° |
| 2026-04-21 22:34 | 39.17905 | 23.50338 | 45 ft | 7 kts | 231° |
| 2026-04-21 22:35 | 39.17858 | 23.50304 | 44 ft | 9 kts | 201° |
| 2026-04-21 22:35 | 39.17809 | 23.50280 | 44 ft | 7 kts | 198° |
| 2026-04-21 22:35 | 39.17787 | 23.50260 | 44 ft | 1 kts | 261° |
| 2026-04-21 22:35 | 39.17788 | 23.50247 | 42 ft | 3 kts | 275° |
| 2026-04-21 22:36 | 39.17792 | 23.50222 | 45 ft | 3 kts | 286° |
| 2026-04-21 22:36 | 39.17795 | 23.50210 | 44 ft | 0 kts | 287° |
| 2026-04-21 22:36 | 39.17800 | 23.50190 | 48 ft | 3 kts | 289° |
| 2026-04-21 22:37 | 39.17801 | 23.50186 | 49 ft | 0 kts | 290° |
| 2026-04-21 22:37 | 39.17802 | 23.50183 | 49 ft | 1 kts | 290° |
| 2026-04-21 22:37 | 39.17804 | 23.50179 | 50 ft | 1 kts | 290° |
| 2026-04-21 22:37 | 39.17804 | 23.50178 | 50 ft | 0 kts | 290° |